KPRC

Ernest A Love Field Airport

Prescott, Arizona, USA
METAR KPRC 182053Z 25010G15KT 10SM SCT050 30/14 A3021 RMK AO2 SLP143 TCU DSNT ALQDS T03000139 57021
Observed Flight Rules
Aug-18 @ 20:53 UTC (60 minutes ago) Visual Flight Rules
Wind Visibility Clouds
250° at 10 knots
 Gusting to 15 knots
10 miles
  • Scattered at 5,000' AGL
Temperatures Readings
Current 30°C / 86°F
Dewpoint 14°C / 57°F
Humidity 38%
Altimeter 30.21" Hg
Pressure 1014.3 hPa
Elevation 1524
METAR KPRC 182053Z 25010G15KT 10SM SCT050 30/14 A3021 RMK AO2 SLP143 TCU DSNT ALQDS T03000139 57021
Observed Flight Rules
Aug-18 @ 20:53 UTC
(60 minutes ago)
VFR
Wind Visibility
250° at 10 knots
 Gusting to 15 knots
10 miles
Clouds
  • Scattered at 5,000' AGL
Temperature Dewpoint
30°C / 86°F 14°C / 57°F
Humidity Altimeter Pressure
38% 30.21" Hg 1014.3 hPa